Terminal Aerodrome Forecast
Issued by NWS Lake Charles, LA

Home | Current Version | Previous Version | Text Only | Print | Product List | Glossary On
Versions: 1 2 3 4 5 6 7 8 9 10 11 12 13 14
193
FTUS44 KLCH 111723
TAFLFT
TAF
KLFT 111723Z 1118/1218 25014G21KT P6SM SCT025
     FM120000 22007KT P6SM SKC
     FM120600 21004KT 4SM BR SCT007
     FM121500 24008KT P6SM SCT020=

USA.gov is the U.S. government's official web portal to all federal, state and local government web resources and services.